Time;durP1;ratioP1;P1;durP2;ratioP2;P2;SDS_P1;SDS_P2;PMS_P1;PMS_P2;Temp;Humidity;BMP_temperature;BMP_pressure;BME280_temperature;BME280_humidity;BME280_pressure;Samples;Min_cycle;Max_cycle;Signal;HPM_P1;HPM_P2
2023/01/14 00:00:15;;;;;;;41.35;23.60;;;;;;;;;;6249323;28;20057;-69
2023/01/14 00:03:17;;;;;;;44.42;23.02;;;;;;;;;;6247098;28;20049;-70
2023/01/14 00:06:20;;;;;;;36.13;23.83;;;;;;;;;;6249898;28;20046;-68
2023/01/14 00:09:27;;;;;;;38.08;23.85;;;;;;;;;;6252818;28;20160;-68
2023/01/14 00:12:29;;;;;;;38.22;23.60;;;;;;;;;;6249254;28;20113;-71
2023/01/14 00:15:32;;;;;;;46.65;25.15;;;;;;;;;;6250704;28;20049;-69
2023/01/14 00:18:34;;;;;;;37.97;23.13;;;;;;;;;;6246921;28;20109;-69
2023/01/14 00:21:37;;;;;;;45.58;24.27;;;;;;;;;;6250141;28;20057;-69
2023/01/14 00:24:39;;;;;;;36.58;22.45;;;;;;;;;;6247815;28;20045;-70
2023/01/14 00:27:41;;;;;;;38.40;21.98;;;;;;;;;;6251334;28;20053;-69
2023/01/14 00:30:44;;;;;;;39.85;23.63;;;;;;;;;;6247500;28;20076;-69
2023/01/14 00:33:46;;;;;;;33.72;22.90;;;;;;;;;;6250013;28;20057;-70
2023/01/14 00:36:48;;;;;;;39.83;23.50;;;;;;;;;;6248800;28;20066;-69
2023/01/14 00:39:50;;;;;;;37.90;24.77;;;;;;;;;;6247646;28;20056;-69
2023/01/14 00:42:52;;;;;;;40.42;24.48;;;;;;;;;;6249795;28;20040;-69
2023/01/14 00:45:56;;;;;;;37.08;22.95;;;;;;;;;;6247831;28;20061;-70
2023/01/14 00:48:58;;;;;;;45.00;24.07;;;;;;;;;;6246877;28;20057;-69
2023/01/14 00:52:02;;;;;;;39.28;23.15;;;;;;;;;;6248926;28;20073;-69
2023/01/14 00:55:04;;;;;;;41.67;23.00;;;;;;;;;;6249482;28;20251;-68
2023/01/14 00:58:06;;;;;;;37.83;22.05;;;;;;;;;;6249979;28;20057;-69
2023/01/14 01:01:10;;;;;;;34.45;22.02;;;;;;;;;;6250733;28;20064;-68
2023/01/14 01:04:11;;;;;;;36.22;22.38;;;;;;;;;;6246235;28;20108;-70
2023/01/14 01:07:13;;;;;;;33.88;21.73;;;;;;;;;;6247845;28;20049;-69
2023/01/14 01:10:16;;;;;;;36.22;22.20;;;;;;;;;;6247850;28;20091;-70
2023/01/14 01:13:18;;;;;;;32.80;20.95;;;;;;;;;;6249726;28;20081;-69
2023/01/14 01:16:24;;;;;;;35.70;22.73;;;;;;;;;;6246034;28;20046;-70
2023/01/14 01:19:25;;;;;;;36.92;22.10;;;;;;;;;;6248092;28;20266;-69
2023/01/14 01:22:29;;;;;;;33.72;21.65;;;;;;;;;;6246852;28;20337;-70
2023/01/14 01:25:31;;;;;;;40.38;23.25;;;;;;;;;;6249043;28;20382;-70
2023/01/14 01:28:33;;;;;;;37.20;22.00;;;;;;;;;;6245153;28;20065;-70
2023/01/14 01:31:36;;;;;;;39.67;23.50;;;;;;;;;;6246153;28;20057;-70
2023/01/14 01:34:38;;;;;;;35.97;22.52;;;;;;;;;;6249496;28;20053;-69
2023/01/14 01:37:40;;;;;;;39.33;22.13;;;;;;;;;;6249201;28;20060;-70
2023/01/14 01:40:42;;;;;;;39.70;22.92;;;;;;;;;;6248363;28;20048;-69
2023/01/14 01:44:07;;;;;;;38.33;23.15;;;;;;;;;;6247804;28;20045;-68
2023/01/14 01:47:10;;;;;;;37.88;21.40;;;;;;;;;;6243045;28;20041;-70
2023/01/14 01:50:12;;;;;;;35.67;21.10;;;;;;;;;;6248185;28;20749;-70
2023/01/14 01:53:15;;;;;;;35.25;21.65;;;;;;;;;;6246151;28;20053;-70
2023/01/14 01:56:21;;;;;;;32.95;21.27;;;;;;;;;;6246700;28;20092;-70
2023/01/14 01:59:25;;;;;;;35.22;20.48;;;;;;;;;;6247980;28;20154;-69
2023/01/14 02:02:29;;;;;;;32.85;20.60;;;;;;;;;;6245784;28;20069;-69
2023/01/14 02:05:31;;;;;;;;;;;;;;;;;;6245396;28;20056;-70
2023/01/14 02:08:33;;;;;;;30.33;19.73;;;;;;;;;;6245601;28;20004;-70
2023/01/14 02:11:49;;;;;;;38.75;20.92;;;;;;;;;;6247373;28;20049;-70
2023/01/14 02:15:02;;;;;;;37.08;21.83;;;;;;;;;;6245938;28;20053;-71
2023/01/14 02:18:23;;;;;;;34.42;20.75;;;;;;;;;;6245372;28;20053;-69
2023/01/14 02:21:29;;;;;;;33.28;20.67;;;;;;;;;;6247403;28;20338;-70
2023/01/14 02:24:59;;;;;;;31.67;21.55;;;;;;;;;;6245436;28;20867;-70
2023/01/14 02:28:05;;;;;;;38.40;22.70;;;;;;;;;;6234584;28;20045;-70
2023/01/14 02:31:12;;;;;;;34.00;22.77;;;;;;;;;;6246147;28;20053;-70
2023/01/14 02:34:18;;;;;;;37.95;23.52;;;;;;;;;;6245944;28;20045;-71
2023/01/14 02:37:25;;;;;;;39.38;23.55;;;;;;;;;;6245331;28;20237;-69
2023/01/14 02:40:30;;;;;;;45.72;25.27;;;;;;;;;;6247443;28;20050;-69
2023/01/14 02:46:58;;;;;;;44.25;24.63;;;;;;;;;;6224967;28;20049;-70
2023/01/14 02:50:01;;;;;;;41.30;23.67;;;;;;;;;;6248313;28;20068;-70
2023/01/14 02:53:09;;;;;;;41.55;24.05;;;;;;;;;;6246171;28;20337;-70
2023/01/14 02:56:12;;;;;;;39.63;23.67;;;;;;;;;;6244700;28;20053;-69
2023/01/14 02:59:47;;;;;;;44.78;25.08;;;;;;;;;;6244987;28;20057;-70
2023/01/14 03:02:58;;;;;;;41.75;26.00;;;;;;;;;;6243691;28;20356;-70
2023/01/14 03:06:07;;;;;;;38.03;23.23;;;;;;;;;;6246615;28;20076;-70
2023/01/14 03:09:15;;;;;;;41.22;24.13;;;;;;;;;;6244156;28;20042;-69
2023/01/14 03:12:19;;;;;;;39.70;24.02;;;;;;;;;;6246628;28;20048;-70
2023/01/14 03:15:25;;;;;;;43.80;24.42;;;;;;;;;;6247658;28;20277;-70
2023/01/14 03:18:32;;;;;;;39.55;24.02;;;;;;;;;;6246376;28;20059;-67
2023/01/14 03:21:36;;;;;;;40.53;24.00;;;;;;;;;;6247400;28;20146;-69
2023/01/14 03:24:43;;;;;;;39.20;23.60;;;;;;;;;;6247648;28;20053;-69
2023/01/14 03:27:46;;;;;;;43.95;24.95;;;;;;;;;;6243616;28;20052;-69
2023/01/14 03:30:50;;;;;;;36.17;23.07;;;;;;;;;;6243726;28;20052;-70
2023/01/14 03:33:56;;;;;;;36.92;23.17;;;;;;;;;;6247386;28;20483;-69
2023/01/14 03:37:00;;;;;;;37.55;23.13;;;;;;;;;;6243349;28;20092;-69
2023/01/14 03:40:06;;;;;;;37.60;22.75;;;;;;;;;;6242222;28;20045;-70
2023/01/14 03:43:11;;;;;;;37.22;22.65;;;;;;;;;;6247575;28;20046;-70
2023/01/14 03:46:13;;;;;;;39.53;23.90;;;;;;;;;;6242135;28;20053;-70
2023/01/14 03:49:16;;;;;;;34.58;21.88;;;;;;;;;;6245526;28;20353;-70
2023/01/14 03:52:36;;;;;;;38.65;22.77;;;;;;;;;;6243914;28;20081;-70
2023/01/14 03:55:42;;;;;;;35.50;22.30;;;;;;;;;;6246587;28;20049;-70
2023/01/14 03:58:47;;;;;;;36.67;22.63;;;;;;;;;;6246652;28;20053;-68
2023/01/14 04:01:52;;;;;;;35.15;21.95;;;;;;;;;;6243285;28;20056;-69
2023/01/14 04:04:56;;;;;;;39.08;21.80;;;;;;;;;;6242154;28;20054;-68
2023/01/14 04:07:58;;;;;;;35.00;22.73;;;;;;;;;;6242416;28;20064;-70
2023/01/14 04:11:00;;;;;;;36.30;22.17;;;;;;;;;;6242582;28;20075;-69
2023/01/14 04:17:21;;;;;;;42.80;25.23;;;;;;;;;;6244813;28;20050;-70
2023/01/14 04:20:24;;;;;;;45.33;26.17;;;;;;;;;;6244245;28;20083;-67
2023/01/14 04:23:26;;;;;;;47.92;27.92;;;;;;;;;;6245552;28;20062;-69
2023/01/14 04:26:28;;;;;;;47.22;28.90;;;;;;;;;;6244081;28;20042;-69
2023/01/14 04:29:30;;;;;;;51.00;28.58;;;;;;;;;;6242084;28;20066;-69
2023/01/14 04:32:32;;;;;;;50.28;30.30;;;;;;;;;;6247328;28;20045;-69
2023/01/14 04:35:35;;;;;;;50.50;31.63;;;;;;;;;;6243486;28;20060;-69
2023/01/14 04:38:37;;;;;;;53.45;33.20;;;;;;;;;;6245348;28;20379;-69
2023/01/14 04:45:00;;;;;;;64.93;38.10;;;;;;;;;;6251489;28;20049;-70
2023/01/14 04:48:02;;;;;;;64.55;36.20;;;;;;;;;;6247442;28;20064;-68
2023/01/14 04:51:06;;;;;;;58.97;36.38;;;;;;;;;;6250203;28;20057;-68
2023/01/14 04:54:14;;;;;;;59.33;34.47;;;;;;;;;;6249846;28;20057;-69
2023/01/14 04:57:16;;;;;;;57.38;33.53;;;;;;;;;;6249272;28;20060;-69
2023/01/14 05:00:18;;;;;;;55.00;35.55;;;;;;;;;;6247009;28;20068;-69
2023/01/14 05:03:21;;;;;;;61.45;35.33;;;;;;;;;;6247883;28;20061;-69
2023/01/14 05:06:24;;;;;;;60.53;34.80;;;;;;;;;;6247960;28;20048;-69
2023/01/14 05:09:26;;;;;;;54.17;32.15;;;;;;;;;;6245823;28;20062;-69
2023/01/14 05:12:28;;;;;;;61.55;32.65;;;;;;;;;;6250595;28;20041;-69
2023/01/14 05:15:32;;;;;;;56.42;33.38;;;;;;;;;;6248810;28;20250;-70
2023/01/14 05:18:34;;;;;;;62.20;34.95;;;;;;;;;;6242397;28;20056;-69
2023/01/14 05:21:37;;;;;;;58.90;33.80;;;;;;;;;;6257370;28;20221;-70
2023/01/14 05:24:39;;;;;;;55.88;34.50;;;;;;;;;;6245563;28;20053;-68
2023/01/14 05:27:41;;;;;;;60.22;34.15;;;;;;;;;;6250390;28;20045;-69
2023/01/14 05:30:43;;;;;;;56.78;33.38;;;;;;;;;;6248370;28;20049;-69
2023/01/14 05:33:45;;;;;;;55.50;33.58;;;;;;;;;;6245144;28;20046;-70
2023/01/14 05:36:48;;;;;;;58.38;32.78;;;;;;;;;;6246855;28;20054;-70
2023/01/14 05:39:50;;;;;;;54.72;31.75;;;;;;;;;;6247476;28;20054;-69
2023/01/14 05:46:15;;;;;;;57.28;33.88;;;;;;;;;;6249880;28;20046;-69
2023/01/14 05:49:17;;;;;;;58.03;33.25;;;;;;;;;;6248863;28;20065;-70
2023/01/14 05:52:20;;;;;;;63.03;34.55;;;;;;;;;;6247486;28;20057;-69
2023/01/14 05:55:22;;;;;;;56.60;32.88;;;;;;;;;;6247786;28;20053;-69
2023/01/14 05:58:24;;;;;;;60.42;34.30;;;;;;;;;;6244958;28;20049;-70
2023/01/14 06:08:13;;;;;;;62.92;33.50;;;;;;;;;;6246358;28;20041;-69
2023/01/14 06:11:15;;;;;;;57.90;33.97;;;;;;;;;;6249571;28;20061;-70
2023/01/14 06:14:16;;;;;;;51.90;30.67;;;;;;;;;;6244213;28;20049;-69
2023/01/14 06:17:27;;;;;;;51.15;30.95;;;;;;;;;;6245933;28;20133;-69
2023/01/14 06:20:29;;;;;;;55.50;30.65;;;;;;;;;;6244141;28;20408;-70
2023/01/14 06:23:33;;;;;;;48.80;28.70;;;;;;;;;;6245933;28;20384;-70
2023/01/14 06:26:36;;;;;;;48.43;27.97;;;;;;;;;;6247847;28;20045;-69
2023/01/14 06:29:40;;;;;;;51.00;28.63;;;;;;;;;;6248173;28;20045;-68
2023/01/14 06:32:42;;;;;;;54.10;27.35;;;;;;;;;;6246525;28;20061;-68
2023/01/14 06:35:45;;;;;;;54.53;27.88;;;;;;;;;;6246401;28;20091;-69
2023/01/14 06:38:48;;;;;;;54.93;29.50;;;;;;;;;;6247570;28;20136;-69
2023/01/14 06:41:50;;;;;;;47.05;27.58;;;;;;;;;;6246402;28;20664;-69
2023/01/14 06:44:52;;;;;;;48.88;29.02;;;;;;;;;;6249017;28;20112;-69
2023/01/14 06:47:54;;;;;;;45.92;27.20;;;;;;;;;;6246744;28;20193;-69
2023/01/14 06:50:56;;;;;;;51.50;29.60;;;;;;;;;;6246550;28;20088;-70
2023/01/14 06:53:59;;;;;;;49.25;29.02;;;;;;;;;;6245706;28;20059;-70
2023/01/14 06:57:01;;;;;;;50.85;28.45;;;;;;;;;;6244749;28;20057;-68
2023/01/14 07:00:03;;;;;;;47.78;26.60;;;;;;;;;;6247271;28;20148;-69
2023/01/14 07:03:05;;;;;;;45.10;25.33;;;;;;;;;;6247212;28;20057;-69
2023/01/14 07:06:08;;;;;;;43.22;25.17;;;;;;;;;;6246927;28;20053;-69
2023/01/14 07:09:11;;;;;;;43.35;24.20;;;;;;;;;;6245467;28;20222;-69
2023/01/14 07:12:13;;;;;;;41.22;23.38;;;;;;;;;;6243494;28;20142;-70
2023/01/14 07:15:16;;;;;;;42.67;24.67;;;;;;;;;;6245135;28;20057;-70
2023/01/14 07:18:18;;;;;;;42.67;25.17;;;;;;;;;;6243872;28;20101;-69
2023/01/14 07:21:20;;;;;;;43.55;24.95;;;;;;;;;;6244678;28;20329;-70
2023/01/14 07:24:23;;;;;;;47.60;24.63;;;;;;;;;;6245957;28;20053;-69
2023/01/14 07:27:25;;;;;;;41.30;23.73;;;;;;;;;;6244712;28;20103;-70
2023/01/14 07:30:27;;;;;;;38.55;24.33;;;;;;;;;;6243058;28;20337;-69
2023/01/14 07:33:29;;;;;;;46.97;27.05;;;;;;;;;;6246430;28;20308;-69
2023/01/14 07:36:30;;;;;;;43.53;26.52;;;;;;;;;;6239344;28;20233;-70
2023/01/14 07:39:34;;;;;;;42.08;25.13;;;;;;;;;;6244873;28;20391;-70
2023/01/14 07:42:35;;;;;;;52.90;28.35;;;;;;;;;;6246533;28;20238;-69
2023/01/14 07:45:37;;;;;;;47.58;26.60;;;;;;;;;;6243256;28;20058;-70
2023/01/14 07:48:40;;;;;;;51.38;29.17;;;;;;;;;;6243136;28;20099;-68
2023/01/14 07:51:42;;;;;;;47.67;26.88;;;;;;;;;;6244425;28;20120;-67
2023/01/14 07:54:45;;;;;;;52.63;30.52;;;;;;;;;;6246773;28;20056;-68
2023/01/14 07:57:47;;;;;;;48.33;27.38;;;;;;;;;;6243023;28;20084;-72
2023/01/14 08:00:49;;;;;;;50.55;29.75;;;;;;;;;;6241215;28;20038;-71
2023/01/14 08:03:51;;;;;;;51.13;28.98;;;;;;;;;;6246064;28;20058;-70
2023/01/14 08:06:56;;;;;;;49.70;28.08;;;;;;;;;;6243005;28;20052;-74
2023/01/14 08:09:59;;;;;;;45.53;27.92;;;;;;;;;;6241799;28;20077;-71
2023/01/14 08:13:01;;;;;;;47.35;28.30;;;;;;;;;;6245136;28;20064;-75
2023/01/14 08:16:04;;;;;;;53.90;28.63;;;;;;;;;;6239607;28;20049;-72
2023/01/14 08:19:05;;;;;;;47.40;28.13;;;;;;;;;;6251286;28;20056;-74
2023/01/14 08:22:07;;;;;;;47.65;28.92;;;;;;;;;;6246645;28;20096;-75
2023/01/14 08:25:10;;;;;;;51.92;29.25;;;;;;;;;;6251232;28;20049;-73
2023/01/14 08:28:12;;;;;;;42.13;29.00;;;;;;;;;;6247556;28;20065;-74
2023/01/14 08:31:16;;;;;;;46.72;28.17;;;;;;;;;;6249035;28;20056;-73
2023/01/14 08:34:18;;;;;;;47.05;27.88;;;;;;;;;;6248945;28;20056;-73
2023/01/14 08:37:19;;;;;;;44.47;26.92;;;;;;;;;;6248294;28;20343;-73
2023/01/14 08:40:23;;;;;;;43.35;26.88;;;;;;;;;;6248514;28;20050;-70
2023/01/14 08:43:25;;;;;;;39.33;25.25;;;;;;;;;;6245900;28;20057;-71
2023/01/14 08:46:26;;;;;;;40.45;25.25;;;;;;;;;;6244931;28;20057;-72
2023/01/14 08:49:28;;;;;;;35.70;24.13;;;;;;;;;;6246363;28;20072;-74
2023/01/14 08:52:30;;;;;;;38.63;23.30;;;;;;;;;;6246757;28;20061;-74
2023/01/14 08:55:34;;;;;;;36.15;22.75;;;;;;;;;;6247018;28;20063;-74
2023/01/14 08:58:36;;;;;;;36.67;22.85;;;;;;;;;;6247659;28;20049;-73
2023/01/14 09:01:38;;;;;;;35.83;22.00;;;;;;;;;;6247173;28;20055;-72
2023/01/14 09:04:40;;;;;;;35.22;22.70;;;;;;;;;;6248114;28;20210;-72
2023/01/14 09:17:42;;;;;;;33.33;21.58;;;;;;;;;;6246768;28;20330;-73
2023/01/14 09:20:44;;;;;;;35.65;21.15;;;;;;;;;;6246809;28;20280;-73
2023/01/14 09:23:46;;;;;;;34.33;21.25;;;;;;;;;;6244162;28;20353;-73
2023/01/14 09:26:49;;;;;;;31.52;21.50;;;;;;;;;;6245695;28;20096;-72
2023/01/14 09:29:51;;;;;;;29.80;20.00;;;;;;;;;;6243515;28;20061;-72
2023/01/14 09:32:53;;;;;;;27.00;19.38;;;;;;;;;;6244255;28;20139;-71
2023/01/14 09:35:55;;;;;;;31.38;18.92;;;;;;;;;;6248883;28;20326;-71
2023/01/14 09:38:57;;;;;;;29.65;19.15;;;;;;;;;;6247719;28;20156;-71
2023/01/14 09:42:01;;;;;;;27.38;18.95;;;;;;;;;;6248489;28;20057;-72
2023/01/14 09:45:11;;;;;;;27.88;18.17;;;;;;;;;;6246578;28;20272;-72
2023/01/14 09:48:14;;;;;;;27.08;18.05;;;;;;;;;;6245862;28;20107;-72
2023/01/14 09:51:28;;;;;;;28.20;17.35;;;;;;;;;;6243527;28;20049;-71
2023/01/14 09:54:34;;;;;;;25.27;17.38;;;;;;;;;;6248840;28;20136;-71
2023/01/14 09:57:43;;;;;;;28.00;16.58;;;;;;;;;;6249124;28;20257;-71
2023/01/14 10:00:51;;;;;;;23.90;17.45;;;;;;;;;;6245028;28;20321;-71
2023/01/14 10:03:55;;;;;;;28.27;18.27;;;;;;;;;;6246684;28;20064;-72
2023/01/14 10:06:58;;;;;;;22.90;16.50;;;;;;;;;;6248060;28;20076;-72
2023/01/14 10:10:01;;;;;;;24.25;15.48;;;;;;;;;;6246930;28;20067;-71
2023/01/14 10:13:07;;;;;;;21.30;14.77;;;;;;;;;;6246724;28;20067;-72
2023/01/14 10:16:12;;;;;;;21.77;13.95;;;;;;;;;;6248159;28;20061;-72
2023/01/14 10:19:16;;;;;;;20.65;13.45;;;;;;;;;;6248243;28;20091;-72
2023/01/14 10:22:28;;;;;;;17.83;12.40;;;;;;;;;;6248418;28;20333;-70
2023/01/14 10:25:30;;;;;;;17.65;12.60;;;;;;;;;;6246330;28;20053;-70
2023/01/14 10:28:33;;;;;;;14.75;10.80;;;;;;;;;;6244338;28;20107;-74
2023/01/14 10:31:37;;;;;;;21.00;12.18;;;;;;;;;;6243674;28;20053;-69
2023/01/14 10:34:41;;;;;;;14.65;10.75;;;;;;;;;;6246935;28;20049;-69
2023/01/14 10:37:43;;;;;;;16.25;10.27;;;;;;;;;;6244552;28;20055;-71
2023/01/14 10:40:46;;;;;;;15.90;9.60;;;;;;;;;;6245961;28;20068;-73
2023/01/14 10:43:50;;;;;;;19.20;10.40;;;;;;;;;;6246948;28;20459;-69
2023/01/14 10:46:53;;;;;;;17.05;10.73;;;;;;;;;;6244896;28;20095;-70
2023/01/14 10:49:56;;;;;;;16.35;9.88;;;;;;;;;;6248108;28;20403;-73
2023/01/14 10:53:15;;;;;;;14.43;10.20;;;;;;;;;;6246586;28;20058;-71
2023/01/14 10:56:17;;;;;;;15.90;10.40;;;;;;;;;;6247804;28;20042;-69
2023/01/14 10:59:34;;;;;;;15.88;9.85;;;;;;;;;;6246900;28;20098;-68
2023/01/14 11:02:38;;;;;;;21.92;10.05;;;;;;;;;;6243704;28;20104;-70
2023/01/14 11:05:42;;;;;;;19.25;8.27;;;;;;;;;;6246958;28;20120;-69
2023/01/14 11:08:52;;;;;;;12.88;7.85;;;;;;;;;;6244102;28;20185;-68
2023/01/14 11:11:53;;;;;;;13.25;7.43;;;;;;;;;;6240677;28;20057;-76
2023/01/14 11:14:57;;;;;;;13.95;8.05;;;;;;;;;;6241934;28;20338;-71
2023/01/14 11:18:16;;;;;;;11.43;7.88;;;;;;;;;;6244040;28;20054;-69
2023/01/14 11:21:20;;;;;;;11.98;7.80;;;;;;;;;;6247530;28;20046;-69
2023/01/14 11:24:28;;;;;;;10.80;7.72;;;;;;;;;;6245922;28;20048;-69
2023/01/14 11:27:31;;;;;;;12.25;7.82;;;;;;;;;;6245341;28;20124;-69
2023/01/14 11:30:34;;;;;;;12.40;7.90;;;;;;;;;;6242584;28;20057;-69
2023/01/14 11:33:36;;;;;;;12.23;8.10;;;;;;;;;;6245492;28;20050;-69
2023/01/14 11:36:37;;;;;;;19.08;8.65;;;;;;;;;;6243829;28;20046;-70
2023/01/14 11:39:39;;;;;;;11.02;7.75;;;;;;;;;;6244687;28;20071;-69
2023/01/14 11:42:42;;;;;;;13.43;7.93;;;;;;;;;;6244304;28;20218;-69
2023/01/14 11:45:45;;;;;;;12.70;8.02;;;;;;;;;;6246719;28;20041;-70
2023/01/14 11:48:59;;;;;;;9.53;6.90;;;;;;;;;;6245705;28;20129;-70
2023/01/14 11:52:02;;;;;;;11.00;7.70;;;;;;;;;;6247440;28;20566;-70
2023/01/14 11:55:04;;;;;;;12.95;7.03;;;;;;;;;;6251575;28;20045;-70
2023/01/14 11:58:16;;;;;;;10.48;7.25;;;;;;;;;;6249502;28;20053;-70
2023/01/14 12:01:24;;;;;;;9.65;6.95;;;;;;;;;;6248809;28;20104;-69
2023/01/14 12:04:28;;;;;;;11.63;7.82;;;;;;;;;;6247086;28;20049;-70
2023/01/14 12:07:34;;;;;;;13.77;7.53;;;;;;;;;;6250630;28;20104;-71
2023/01/14 12:10:39;;;;;;;10.35;7.50;;;;;;;;;;6248931;28;20057;-69
2023/01/14 12:17:10;;;;;;;10.95;7.07;;;;;;;;;;6247893;28;20053;-70
2023/01/14 12:20:13;;;;;;;10.10;6.80;;;;;;;;;;6248920;28;20057;-69
2023/01/14 12:23:17;;;;;;;12.77;7.20;;;;;;;;;;6250940;28;20037;-70
2023/01/14 12:26:21;;;;;;;10.45;6.97;;;;;;;;;;6247655;28;20068;-70
2023/01/14 12:29:23;;;;;;;;;;;;;;;;;;6248488;28;20046;-70
2023/01/14 12:32:27;;;;;;;8.65;5.53;;;;;;;;;;6250815;28;19929;-69
2023/01/14 12:35:33;;;;;;;9.00;6.25;;;;;;;;;;6248993;28;20269;-72
2023/01/14 12:48:47;;;;;;;7.93;5.53;;;;;;;;;;6248394;28;20067;-70
2023/01/14 12:51:49;;;;;;;11.17;6.40;;;;;;;;;;6250121;28;20092;-69
2023/01/14 12:54:51;;;;;;;8.95;6.53;;;;;;;;;;6248913;28;20056;-69
2023/01/14 12:57:54;;;;;;;8.75;6.13;;;;;;;;;;6250478;28;20334;-68
2023/01/14 13:00:59;;;;;;;9.18;6.35;;;;;;;;;;6250754;28;20427;-68
2023/01/14 13:04:04;;;;;;;8.73;5.80;;;;;;;;;;6249621;28;20053;-69
2023/01/14 13:07:07;;;;;;;8.50;6.10;;;;;;;;;;6251301;28;20422;-68
2023/01/14 13:10:10;;;;;;;10.05;6.68;;;;;;;;;;6248670;28;20141;-68
2023/01/14 13:13:21;;;;;;;12.75;7.00;;;;;;;;;;6245879;28;20054;-67
2023/01/14 13:16:35;;;;;;;9.98;6.53;;;;;;;;;;6247037;28;20092;-68
2023/01/14 13:19:53;;;;;;;9.85;6.72;;;;;;;;;;6247714;28;20306;-66
2023/01/14 13:22:55;;;;;;;9.68;6.45;;;;;;;;;;6249249;28;20057;-68
2023/01/14 13:25:57;;;;;;;8.93;6.68;;;;;;;;;;6247864;28;20070;-68
2023/01/14 13:29:07;;;;;;;11.77;6.85;;;;;;;;;;6248372;28;20049;-69
2023/01/14 13:32:44;;;;;;;9.80;6.95;;;;;;;;;;6245494;28;20053;-69
2023/01/14 13:36:27;;;;;;;8.70;6.72;;;;;;;;;;6247492;28;20165;-68
2023/01/14 13:39:31;;;;;;;11.80;7.18;;;;;;;;;;6244195;28;20061;-70
2023/01/14 13:42:38;;;;;;;;;;;;;;;;;;6247579;28;20103;-70
2023/01/14 13:45:40;;;;;;;8.93;6.50;;;;;;;;;;6247153;28;19917;-71
2023/01/14 13:48:43;;;;;;;9.50;6.30;;;;;;;;;;6248185;28;20049;-74
2023/01/14 13:51:47;;;;;;;12.43;6.65;;;;;;;;;;6245030;28;20285;-69
2023/01/14 13:54:56;;;;;;;10.30;7.03;;;;;;;;;;6244951;28;20041;-69
2023/01/14 13:58:00;;;;;;;8.88;6.28;;;;;;;;;;6249236;28;20334;-70
2023/01/14 14:01:26;;;;;;;9.10;5.97;;;;;;;;;;6247635;28;20041;-74
2023/01/14 14:05:03;;;;;;;9.20;7.00;;;;;;;;;;6248217;28;20080;-73
2023/01/14 14:08:21;;;;;;;12.02;7.10;;;;;;;;;;6247037;28;20104;-74
2023/01/14 14:11:25;;;;;;;10.18;6.85;;;;;;;;;;6248837;28;20042;-71
2023/01/14 14:14:29;;;;;;;11.45;7.45;;;;;;;;;;6245119;28;20297;-76
2023/01/14 14:17:32;;;;;;;;;;;;;;;;;;6246006;28;20573;-72
2023/01/14 14:20:38;;;;;;;10.80;7.72;;;;;;;;;;6245951;28;19916;-68
2023/01/14 14:23:44;;;;;;;10.52;7.72;;;;;;;;;;6245576;28;20088;-69
2023/01/14 14:26:48;;;;;;;15.05;8.18;;;;;;;;;;6245686;28;20158;-72
2023/01/14 14:29:49;;;;;;;;;;;;;;;;;;6245670;28;20057;-68
2023/01/14 14:32:51;;;;;;;14.15;7.78;;;;;;;;;;6246473;28;19929;-74
2023/01/14 14:35:53;;;;;;;12.93;8.50;;;;;;;;;;6245943;28;20054;-74
2023/01/14 14:38:56;;;;;;;13.40;9.18;;;;;;;;;;6245203;28;20052;-73
2023/01/14 14:42:02;;;;;;;12.52;8.95;;;;;;;;;;6241642;28;20057;-74
2023/01/14 14:45:05;;;;;;;16.73;9.68;;;;;;;;;;6245242;28;20054;-74
2023/01/14 14:48:19;;;;;;;11.80;8.85;;;;;;;;;;6245075;28;20053;-75
2023/01/14 14:51:27;;;;;;;12.50;9.52;;;;;;;;;;6245777;28;20057;-69
2023/01/14 14:54:31;;;;;;;14.70;9.95;;;;;;;;;;6247061;28;20050;-75
2023/01/14 14:57:35;;;;;;;14.13;10.00;;;;;;;;;;6248657;28;20046;-72
2023/01/14 15:00:37;;;;;;;13.30;9.75;;;;;;;;;;6245872;28;20057;-74
2023/01/14 15:03:40;;;;;;;14.20;9.82;;;;;;;;;;6245071;28;20107;-76
2023/01/14 15:06:41;;;;;;;13.57;10.10;;;;;;;;;;6243329;28;20056;-72
2023/01/14 15:09:45;;;;;;;16.05;10.93;;;;;;;;;;6244800;28;20155;-72
2023/01/14 15:12:49;;;;;;;16.40;11.10;;;;;;;;;;6246467;28;20065;-73
2023/01/14 15:16:03;;;;;;;15.98;11.93;;;;;;;;;;6243979;28;20053;-72
2023/01/14 15:19:05;;;;;;;15.30;11.38;;;;;;;;;;6244814;28;20313;-73
2023/01/14 15:22:07;;;;;;;15.40;10.90;;;;;;;;;;6243506;28;20067;-72
2023/01/14 15:25:15;;;;;;;16.52;11.35;;;;;;;;;;6245261;28;20041;-72
2023/01/14 15:28:19;;;;;;;15.27;11.70;;;;;;;;;;6245114;28;20057;-71
2023/01/14 15:31:24;;;;;;;17.30;11.65;;;;;;;;;;6244933;28;20104;-71
2023/01/14 15:34:26;;;;;;;17.63;11.43;;;;;;;;;;6242130;28;20057;-72
2023/01/14 15:37:28;;;;;;;16.17;11.98;;;;;;;;;;6244353;28;21295;-72
2023/01/14 15:40:37;;;;;;;18.35;12.63;;;;;;;;;;6245317;28;20427;-73
2023/01/14 15:43:40;;;;;;;16.23;11.90;;;;;;;;;;6243595;28;20313;-73
2023/01/14 15:46:44;;;;;;;15.32;11.93;;;;;;;;;;6244020;28;20232;-68
2023/01/14 15:49:47;;;;;;;16.40;11.57;;;;;;;;;;6246954;28;20057;-73
2023/01/14 15:53:02;;;;;;;18.85;12.63;;;;;;;;;;6241901;28;20061;-72
2023/01/14 15:56:07;;;;;;;17.00;12.20;;;;;;;;;;6244086;28;20104;-73
2023/01/14 15:59:13;;;;;;;17.30;12.75;;;;;;;;;;6243164;28;20053;-70
2023/01/14 16:02:24;;;;;;;18.42;13.02;;;;;;;;;;6243065;28;20144;-70
2023/01/14 16:05:35;;;;;;;20.52;12.60;;;;;;;;;;6247410;28;20069;-70
2023/01/14 16:08:36;;;;;;;19.88;13.82;;;;;;;;;;6244522;28;20129;-72
2023/01/14 16:11:40;;;;;;;18.75;13.13;;;;;;;;;;6244269;28;20056;-73
2023/01/14 16:14:45;;;;;;;21.63;14.38;;;;;;;;;;6243657;28;20057;-72
2023/01/14 16:17:47;;;;;;;20.38;14.20;;;;;;;;;;6242070;28;20352;-72
2023/01/14 16:20:49;;;;;;;20.10;13.68;;;;;;;;;;6243033;28;20045;-73
2023/01/14 16:23:51;;;;;;;20.95;14.15;;;;;;;;;;6239069;28;20255;-70
2023/01/14 16:26:52;;;;;;;18.83;13.65;;;;;;;;;;6241522;28;20049;-74
2023/01/14 16:29:56;;;;;;;20.17;14.80;;;;;;;;;;6243836;28;20153;-72
2023/01/14 16:32:57;;;;;;;23.23;14.93;;;;;;;;;;6242374;28;20472;-73
2023/01/14 16:35:59;;;;;;;22.38;14.65;;;;;;;;;;6239888;28;20345;-73
2023/01/14 16:39:01;;;;;;;23.13;15.70;;;;;;;;;;6246895;28;20053;-73
2023/01/14 16:42:03;;;;;;;21.88;14.88;;;;;;;;;;6245290;28;20598;-72
2023/01/14 16:45:09;;;;;;;23.67;14.20;;;;;;;;;;6246308;28;20053;-73
2023/01/14 16:48:11;;;;;;;24.08;14.70;;;;;;;;;;6244723;28;20061;-68
2023/01/14 16:51:14;;;;;;;21.60;14.00;;;;;;;;;;6247205;28;20060;-73
2023/01/14 16:54:18;;;;;;;20.70;14.55;;;;;;;;;;6249145;28;20068;-69
2023/01/14 16:57:20;;;;;;;21.70;15.13;;;;;;;;;;6247531;28;20140;-73
2023/01/14 17:00:24;;;;;;;21.05;14.23;;;;;;;;;;6248131;28;20060;-72
2023/01/14 17:03:26;;;;;;;22.08;14.82;;;;;;;;;;6248462;28;20259;-72
2023/01/14 17:06:27;;;;;;;25.17;15.60;;;;;;;;;;6247051;28;20049;-70
2023/01/14 17:09:31;;;;;;;24.98;14.65;;;;;;;;;;6243209;28;20061;-69
2023/01/14 17:12:38;;;;;;;23.17;15.43;;;;;;;;;;6243559;28;20042;-73
2023/01/14 17:15:41;;;;;;;23.58;15.57;;;;;;;;;;6249279;28;20052;-70
2023/01/14 17:18:43;;;;;;;25.08;15.68;;;;;;;;;;6246212;28;20053;-73
2023/01/14 17:21:45;;;;;;;21.88;14.98;;;;;;;;;;6240357;28;20369;-73
2023/01/14 17:24:46;;;;;;;23.60;15.18;;;;;;;;;;6243056;28;20127;-72
2023/01/14 17:27:50;;;;;;;22.33;15.15;;;;;;;;;;6245149;28;20095;-72
2023/01/14 17:30:53;;;;;;;20.60;14.90;;;;;;;;;;6248878;28;20066;-73
2023/01/14 17:33:55;;;;;;;24.15;15.13;;;;;;;;;;6248832;28;20329;-73
2023/01/14 17:36:57;;;;;;;24.33;15.07;;;;;;;;;;6246978;28;20381;-72
2023/01/14 17:39:58;;;;;;;23.42;15.27;;;;;;;;;;6248563;28;20058;-72
2023/01/14 17:43:00;;;;;;;23.00;15.43;;;;;;;;;;6247855;28;20060;-73
2023/01/14 17:46:07;;;;;;;24.73;14.20;;;;;;;;;;6247577;28;20283;-71
2023/01/14 17:49:12;;;;;;;24.27;15.68;;;;;;;;;;6246546;28;20060;-73
2023/01/14 17:52:14;;;;;;;25.02;15.70;;;;;;;;;;6246631;28;20064;-73
2023/01/14 17:55:15;;;;;;;25.63;15.75;;;;;;;;;;6245014;28;20333;-72
2023/01/14 17:58:17;;;;;;;23.75;15.07;;;;;;;;;;6248288;28;20095;-69
2023/01/14 18:01:20;;;;;;;25.15;15.10;;;;;;;;;;6248027;28;20065;-71
2023/01/14 18:04:22;;;;;;;24.23;15.88;;;;;;;;;;6246972;28;20158;-77
2023/01/14 18:07:23;;;;;;;108.55;54.85;;;;;;;;;;6252785;28;20037;-77
2023/01/14 18:10:25;;;;;;;43.75;27.77;;;;;;;;;;6247935;28;20053;-76
2023/01/14 18:13:27;;;;;;;89.50;44.20;;;;;;;;;;6248699;28;20265;-78
2023/01/14 18:16:30;;;;;;;109.78;54.58;;;;;;;;;;6248457;28;20053;-75
2023/01/14 18:19:33;;;;;;;42.15;24.17;;;;;;;;;;6247478;28;20377;-75
2023/01/14 18:22:35;;;;;;;25.13;15.35;;;;;;;;;;6242589;28;20053;-73
2023/01/14 18:25:37;;;;;;;24.67;15.57;;;;;;;;;;6246159;28;20349;-74
2023/01/14 18:28:40;;;;;;;21.42;15.23;;;;;;;;;;6242958;28;20045;-73
2023/01/14 18:31:43;;;;;;;20.43;14.13;;;;;;;;;;6246929;28;20068;-73
2023/01/14 18:34:45;;;;;;;21.63;14.23;;;;;;;;;;6245098;28;20060;-72
2023/01/14 18:37:47;;;;;;;24.20;15.63;;;;;;;;;;6247207;28;20057;-74
2023/01/14 18:40:48;;;;;;;23.45;15.55;;;;;;;;;;6244346;28;20049;-75